KFRI/FRI METAR and TAF weather

Enter ICAO airport designator
Station Type Date Time Source
KFRI METAR 2022/08/13 11:56 UTC NOAA

KFRI 131156Z AUTO 00000KT 10SM CLR 20/17 A3005 RMK AO2 SLP165 T02010173 10249 20199 52006 FZRANO $


Station Type Date Time Source
KFRI Decoded METAR 2022/08/13 11:56 UTC NOAA

Fort Riley, Marshall AAF Ft Riley, KS, United States (KFRI) 39-03-20N 096-45-51W
Aug 13, 2022 - 07:56 AM EDT / 2022.08.13 1156 UTC
Wind: Calm:0
Visibility: 10 mile(s):0
Sky conditions: clear
Temperature: 68.2 F (20.1 C)
Dew Point: 63.1 F (17.3 C)
Relative Humidity: 83%
Pressure (altimeter): 30.05 in. Hg (1017 hPa)
Pressure tendency: 0.02 inches (0.6 hPa) higher than three hours ago
ob: KFRI 131156Z AUTO 00000KT 10SM CLR 20/17 A3005 RMK AO2 SLP165 T02010173 10249 20199 52006 FZRANO
cycle: 12

Station Type Date Time Source
KFRI TAF 2022/08/12 12:54 UTC NOAA

TAF TAF
AMD KFRI 121543Z 1212/1318 16006KT 9999 SKC QNH3012INS
BECMG 1220/1305 19009KT 9999 SKC QNH3006INS TX33/1221Z TN16/1212Z LAST NO
AMDS 12/21Z NEXT 15/12Z

Example: see airport list